Capt. Timmy Callais — WDD7434 — position and weather

sailwx.info

Track history (hours):
 
Tides and Currents Weather Stations Pressure Air Temp Water Temp Dewpoint Dewpoint Depression Visibility Wind Speed Wind Dir Waves Ship Positions

Capt. Timmy Callais

Owner: Florida Marine, LLC, Mandeville, LA. More information available from US FCC via Universal Licensing System and Coast Guard Vessel Documentation Center.

Last reported at 2017-Sep-21 16:21 UTC. Time now 2017-Sep-24 15:39 UTC.
Position N 30°04' W 093°38'.

Length 27 m; draft 2.8 m.

Type: Towing. MMSI: 367186360.

Date/timePositionNaut miles runAvg speedWind from/ knotsBaromVisibWave heightAir tempDewpointWater temp
2017-Sep-21 16:21N 30°04' W 093°38'3 6.0
2017-Sep-21 15:54N 30°04' W 093°35'2 5.9
2017-Sep-21 15:30N 30°04' W 093°32'3 6.0
2017-Sep-21 15:00N 30°04' W 093°29'3 6.1
2017-Sep-21 14:30N 30°04' W 093°25'3 5.9
2017-Sep-21 14:00N 30°04' W 093°22'2 3.9
2017-Sep-21 13:30N 30°05' W 093°20'3 5.5
2017-Sep-21 13:00N 30°08' W 093°20'1 1.6
2017-Sep-21 12:29N 30°08' W 093°19'0 0.0
2017-Sep-21 11:59N 30°08' W 093°19'0 0.0
2017-Sep-21 11:29N 30°08' W 093°19'0 0.0
2017-Sep-21 10:59N 30°08' W 093°19'0 0.0
2017-Sep-21 10:29N 30°08' W 093°19'0 0.0
2017-Sep-21 09:59N 30°08' W 093°19'0 0.0
2017-Sep-21 09:29N 30°08' W 093°19'0 0.0
2017-Sep-21 08:59N 30°08' W 093°19'0 0.0
2017-Sep-21 08:29N 30°08' W 093°19'0 0.0
2017-Sep-21 07:59N 30°08' W 093°19'0 0.0
2017-Sep-21 07:29N 30°08' W 093°19'0 0.0
2017-Sep-21 06:59N 30°08' W 093°19'0 0.0
2017-Sep-21 06:29N 30°08' W 093°19'0 0.0
2017-Sep-21 05:59N 30°08' W 093°19'0 0.0
2017-Sep-21 05:29N 30°08' W 093°19'0 0.0
2017-Sep-21 04:59N 30°08' W 093°19'0 0.0
2017-Sep-21 04:29N 30°08' W 093°19'0 0.0
2017-Sep-21 03:59N 30°08' W 093°19'0 0.0
2017-Sep-21 03:29N 30°08' W 093°19'0 0.0
2017-Sep-21 02:56N 30°08' W 093°19'0 0.0
2017-Sep-21 02:29N 30°08' W 093°19'0 0.0
2017-Sep-21 01:59N 30°08' W 093°19'0 0.0
2017-Sep-21 01:29N 30°08' W 093°19'0 0.0
2017-Sep-21 00:59N 30°08' W 093°19'0 0.0
2017-Sep-21 00:29N 30°08' W 093°19'0 0.0
2017-Sep-20 23:59N 30°08' W 093°19'0 0.0
2017-Sep-20 23:29N 30°08' W 093°19'0 0.0
2017-Sep-20 22:59N 30°08' W 093°19'0 0.0
2017-Sep-20 22:29N 30°08' W 093°19'0 0.0
2017-Sep-20 21:56N 30°08' W 093°19'0 0.0
2017-Sep-20 21:29N 30°08' W 093°19'0 0.0
2017-Sep-20 20:59N 30°08' W 093°19'0 0.0
2017-Sep-20 20:29N 30°08' W 093°19'0 0.0
2017-Sep-20 19:59N 30°08' W 093°19'0 0.1
2017-Sep-20 19:29N 30°08' W 093°19'0 0.0
2017-Sep-20 18:59N 30°08' W 093°19'0 0.2
2017-Sep-20 18:29N 30°08' W 093°19'0 0.2
2017-Sep-20 17:59N 30°08' W 093°20'0 0.0
2017-Sep-20 17:29N 30°08' W 093°19'0 0.4
2017-Sep-20 16:59N 30°08' W 093°20'1 1.1
2017-Sep-20 16:30N 30°08' W 093°20'2 4.6
2017-Sep-20 16:00N 30°05' W 093°20'2 4.5
2017-Sep-20 15:30N 30°04' W 093°22'2 4.8
2017-Sep-20 15:00N 30°04' W 093°24'6 5.8
2017-Sep-20 14:00N 30°04' W 093°31'3 5.8
2017-Sep-20 13:30N 30°04' W 093°34'3 6.1
2017-Sep-20 12:59N 30°04' W 093°38'3 0.1
2017-Sep-19 01:13N 30°04' W 093°42'2 6.0
2017-Sep-19 00:54N 30°04' W 093°39'3 6.1
2017-Sep-19 00:26N 30°04' W 093°36'3 5.9
2017-Sep-18 23:58N 30°04' W 093°33'3 6.0
2017-Sep-18 23:30N 30°04' W 093°30'3 6.0
2017-Sep-18 23:00N 30°04' W 093°26'3 5.8
2017-Sep-18 22:30N 30°04' W 093°23'2 3.8
2017-Sep-18 21:58N 30°04' W 093°21'0 0.2
2017-Sep-18 21:30N 30°04' W 093°21'3 5.2
2017-Sep-18 21:00N 30°07' W 093°20'2 2.9
2017-Sep-18 20:29N 30°08' W 093°19'0 0.0
2017-Sep-18 19:59N 30°08' W 093°19'0 0.0
2017-Sep-18 19:29N 30°08' W 093°19'0 0.0
2017-Sep-18 18:59N 30°08' W 093°19'0 0.0
2017-Sep-18 18:29N 30°08' W 093°19'0 0.0
2017-Sep-18 17:59N 30°08' W 093°19'0 0.0
2017-Sep-18 17:29N 30°08' W 093°19'0 0.0
2017-Sep-18 16:59N 30°08' W 093°19'0 0.0
2017-Sep-18 16:29N 30°08' W 093°19'0 0.0
2017-Sep-18 15:59N 30°08' W 093°19'0 0.0
2017-Sep-18 15:29N 30°08' W 093°19'0 0.0
2017-Sep-18 14:59N 30°08' W 093°19'0 0.0
2017-Sep-18 14:29N 30°08' W 093°19'0 0.0
2017-Sep-18 13:59N 30°08' W 093°19'0 0.0
2017-Sep-18 13:29N 30°08' W 093°19'0 0.0
2017-Sep-18 12:59N 30°08' W 093°19'0 0.0
2017-Sep-18 12:29N 30°08' W 093°19'0 0.0
2017-Sep-18 11:59N 30°08' W 093°19'0 0.0
2017-Sep-18 11:29N 30°08' W 093°19'0 0.0
2017-Sep-18 10:59N 30°08' W 093°19'0 0.0
2017-Sep-18 10:29N 30°08' W 093°19'0 0.0
2017-Sep-18 09:59N 30°08' W 093°19'0 0.3
2017-Sep-18 09:29N 30°08' W 093°20'0 0.0
2017-Sep-18 08:59N 30°08' W 093°20'0 0.0
2017-Sep-18 08:29N 30°08' W 093°20'0 0.0
2017-Sep-18 07:59N 30°08' W 093°20'0 0.0
2017-Sep-18 07:29N 30°08' W 093°20'0 0.0
2017-Sep-18 06:59N 30°08' W 093°20'0 0.1
2017-Sep-18 06:29N 30°08' W 093°20'1 3.0
2017-Sep-18 06:00N 30°07' W 093°20'2 3.5
2017-Sep-18 05:28N 30°05' W 093°20'0 0.1
2017-Sep-18 04:58N 30°05' W 093°20'0 0.0
2017-Sep-18 04:28N 30°05' W 093°20'0 0.0
2017-Sep-18 03:58N 30°05' W 093°20'0 0.0
2017-Sep-18 03:28N 30°05' W 093°20'0 0.0
2017-Sep-18 02:58N 30°05' W 093°20'1 1.2
2017-Sep-18 02:30N 30°05' W 093°20'2 3.0
2017-Sep-18 01:59N 30°06' W 093°18'0 0.0
2017-Sep-18 01:29N 30°06' W 093°18'0 0.0
2017-Sep-18 00:59N 30°06' W 093°18'2 3.4
2017-Sep-18 00:31N 30°05' W 093°20'1 2.8
2017-Sep-17 23:59N 30°04' W 093°21'1 2.7
2017-Sep-17 23:30N 30°05' W 093°20'3 5.2
2017-Sep-17 23:01N 30°08' W 093°20'0 1.0
2017-Sep-17 22:30N 30°08' W 093°19'0 0.0
2017-Sep-17 22:00N 30°08' W 093°19'0 0.0
2017-Sep-17 21:30N 30°08' W 093°19'0 0.0
2017-Sep-17 21:00N 30°08' W 093°19'0 0.0
2017-Sep-17 20:30N 30°08' W 093°19'0 0.0
2017-Sep-17 20:00N 30°08' W 093°19'0 0.0
2017-Sep-17 19:30N 30°08' W 093°19'0 0.0
2017-Sep-17 19:00N 30°08' W 093°19'0 0.0
2017-Sep-17 18:30N 30°08' W 093°19'0 0.0
2017-Sep-17 18:00N 30°08' W 093°19'0 0.0
2017-Sep-17 17:30N 30°08' W 093°19'0 0.0
2017-Sep-17 17:00N 30°08' W 093°19'0 0.0
2017-Sep-17 16:30N 30°08' W 093°19'0 0.0
2017-Sep-17 16:00N 30°08' W 093°19'0 0.0
2017-Sep-17 15:30N 30°08' W 093°19'0 0.0
2017-Sep-17 15:00N 30°08' W 093°19'0 0.0
2017-Sep-17 14:30N 30°08' W 093°19'0 0.0
2017-Sep-17 14:00N 30°08' W 093°19'0 0.0
2017-Sep-17 13:30N 30°08' W 093°19'0 0.0
2017-Sep-17 13:00N 30°08' W 093°19'0 0.0
2017-Sep-17 12:30N 30°08' W 093°19'0 0.0
2017-Sep-17 12:00N 30°08' W 093°19'0 0.3
2017-Sep-17 11:30N 30°08' W 093°20'0 0.0
2017-Sep-17 11:00N 30°08' W 093°20'0 0.0
2017-Sep-17 10:30N 30°08' W 093°20'0 0.0
2017-Sep-17 10:00N 30°08' W 093°20'0 0.0
2017-Sep-17 09:30N 30°08' W 093°20'0 0.0
2017-Sep-17 09:00N 30°08' W 093°20'0 0.0
2017-Sep-17 08:30N 30°08' W 093°20'0 0.0
2017-Sep-17 07:59N 30°08' W 093°20'0 0.1
2017-Sep-17 07:30N 30°08' W 093°20'0 0.0
2017-Sep-17 07:00N 30°08' W 093°20'0 0.0
2017-Sep-17 06:30N 30°08' W 093°20'0 0.0
2017-Sep-17 06:00N 30°08' W 093°20'1 1.7
2017-Sep-17 05:30N 30°07' W 093°20'2 2.8
2017-Sep-17 04:56N 30°06' W 093°19'0 0.8
2017-Sep-17 04:30N 30°06' W 093°18'0 0.0
2017-Sep-17 04:00N 30°06' W 093°18'0 0.1
2017-Sep-17 03:30N 30°06' W 093°18'0 1.0
2017-Sep-17 03:00N 30°06' W 093°18'2 3.4
2017-Sep-17 02:30N 30°05' W 093°16'1 1.4
2017-Sep-17 02:00N 30°04' W 093°16'3 5.2
2017-Sep-17 01:30N 30°02' W 093°15'3 5.4
2017-Sep-17 01:00N 29°59' W 093°13'3 5.9
2017-Sep-17 00:30N 29°57' W 093°11'3 5.2
2017-Sep-17 00:00N 29°56' W 093°08'3 5.5
2017-Sep-16 23:30N 29°56' W 093°05'40 4.9
2017-Sep-16 15:23N 29°50' W 092°19'2 4.0
2017-Sep-16 15:00N 29°49' W 092°18'2 4.4
2017-Sep-16 14:30N 29°48' W 092°15'2 4.9
2017-Sep-16 14:00N 29°47' W 092°13'2 3.4
2017-Sep-16 13:28N 29°47' W 092°11'0 0.0
2017-Sep-16 12:58N 29°47' W 092°11'0 0.0
2017-Sep-16 12:28N 29°47' W 092°11'0 0.0
2017-Sep-16 11:58N 29°47' W 092°11'0 0.0
2017-Sep-16 11:28N 29°47' W 092°11'0 0.0
2017-Sep-16 10:58N 29°47' W 092°11'0 0.0
2017-Sep-16 10:28N 29°47' W 092°11'0 0.0
2017-Sep-16 09:58N 29°47' W 092°11'0 0.0
2017-Sep-16 09:28N 29°47' W 092°11'0 0.1
2017-Sep-16 08:58N 29°47' W 092°11'0 0.7
2017-Sep-16 08:30N 29°47' W 092°10'2 4.3
2017-Sep-16 08:00N 29°47' W 092°08'2 4.2
2017-Sep-16 07:28N 29°48' W 092°06'1 2.2
2017-Sep-16 07:00N 29°48' W 092°05'61 4.7
2017-Sep-15 18:03N 29°34' W 090°56'1 6.0
2017-Sep-15 17:51N 29°33' W 090°55'2 5.8
2017-Sep-15 17:30N 29°32' W 090°53'3 5.8
2017-Sep-15 17:00N 29°32' W 090°49'3 5.9
2017-Sep-15 16:30N 29°32' W 090°46'3 5.2
2017-Sep-15 16:00N 29°34' W 090°44'1 2.1
2017-Sep-15 15:31N 29°35' W 090°43'2 4.0
2017-Sep-15 15:01N 29°37' W 090°42'1 1.5
2017-Sep-15 14:30N 29°37' W 090°42'0 0.0
2017-Sep-15 14:00N 29°37' W 090°42'0 0.0
2017-Sep-15 13:30N 29°37' W 090°42'0 0.0
2017-Sep-15 13:00N 29°37' W 090°42'0 0.0
2017-Sep-15 12:30N 29°37' W 090°42'0 0.0
2017-Sep-15 12:00N 29°37' W 090°42'0 0.0
2017-Sep-15 11:30N 29°37' W 090°42'0 0.0
2017-Sep-15 11:00N 29°37' W 090°42'0 0.1
2017-Sep-15 10:30N 29°37' W 090°42'0 0.2
2017-Sep-15 09:59N 29°37' W 090°42'0 0.0
2017-Sep-15 09:29N 29°37' W 090°42'0 0.0
2017-Sep-15 08:59N 29°37' W 090°42'0 0.0
2017-Sep-15 08:29N 29°37' W 090°42'0 0.0
2017-Sep-15 07:59N 29°37' W 090°42'0 0.0
2017-Sep-15 07:29N 29°37' W 090°42'0 0.0
2017-Sep-15 06:59N 29°37' W 090°42'0 0.0
2017-Sep-15 06:29N 29°37' W 090°42'0 0.0
2017-Sep-15 05:59N 29°37' W 090°42'0 0.0
2017-Sep-15 05:29N 29°37' W 090°42'0 0.0
2017-Sep-15 04:59N 29°37' W 090°42'0 0.0
2017-Sep-15 04:29N 29°37' W 090°42'0 0.0
2017-Sep-15 03:59N 29°37' W 090°42'0 0.0
2017-Sep-15 03:29N 29°37' W 090°42'0 0.0
2017-Sep-15 02:59N 29°37' W 090°42'0 0.0
2017-Sep-15 02:29N 29°37' W 090°42'0 0.0
2017-Sep-15 01:59N 29°37' W 090°42'0 0.0
2017-Sep-15 01:29N 29°37' W 090°42'0 0.0
2017-Sep-15 00:59N 29°37' W 090°42'0 0.0
2017-Sep-15 00:29N 29°37' W 090°42'0 0.0
2017-Sep-14 23:59N 29°37' W 090°42'0 0.0
2017-Sep-14 23:29N 29°37' W 090°42'0 0.2
2017-Sep-14 23:00N 29°37' W 090°42'0 0.1
2017-Sep-14 22:30N 29°37' W 090°42'0 0.0
2017-Sep-14 22:00N 29°37' W 090°42'0 0.0
2017-Sep-14 21:30N 29°37' W 090°42'0 0.0
2017-Sep-14 21:00N 29°37' W 090°42'0 0.0
2017-Sep-14 20:30N 29°37' W 090°42'0 0.0
2017-Sep-14 20:00N 29°37' W 090°42'0 0.0
2017-Sep-14 19:30N 29°37' W 090°42'0 0.0
2017-Sep-14 19:00N 29°37' W 090°42'0 0.0
2017-Sep-14 18:30N 29°37' W 090°42'0 0.0
2017-Sep-14 18:00N 29°37' W 090°42'0 0.0
2017-Sep-14 17:24N 29°37' W 090°42'0 0.0
2017-Sep-14 17:00N 29°37' W 090°42'0 0.0
2017-Sep-14 16:30N 29°37' W 090°42'0 0.0
2017-Sep-14 16:00N 29°37' W 090°42'0 0.0
2017-Sep-14 15:30N 29°37' W 090°42'0 0.0
2017-Sep-14 15:00N 29°37' W 090°42'0 0.0
2017-Sep-14 14:30N 29°37' W 090°42'0 0.0
2017-Sep-14 14:00N 29°37' W 090°42'0 0.0
2017-Sep-14 13:30N 29°37' W 090°42'0 0.0
2017-Sep-14 13:00N 29°37' W 090°42'0 0.0
2017-Sep-14 12:30N 29°37' W 090°42'0 0.0
2017-Sep-14 12:00N 29°37' W 090°42'0 0.0
2017-Sep-14 11:30N 29°37' W 090°42'0 0.0
2017-Sep-14 11:00N 29°37' W 090°42'0 0.0
2017-Sep-14 10:30N 29°37' W 090°42'0 0.4
2017-Sep-14 10:00N 29°37' W 090°42'0 0.1
2017-Sep-14 09:28N 29°37' W 090°42'0 0.3
2017-Sep-14 09:00N 29°37' W 090°42'0 0.2
2017-Sep-14 08:30N 29°37' W 090°42'0 0.0
2017-Sep-14 08:00N 29°37' W 090°42'0 0.0
2017-Sep-14 07:30N 29°37' W 090°42'0 0.0
2017-Sep-14 07:00N 29°37' W 090°42'0 0.0
2017-Sep-14 06:30N 29°37' W 090°42'0 0.0
2017-Sep-14 06:00N 29°37' W 090°42'0 0.0
2017-Sep-14 05:30N 29°37' W 090°42'0 0.0
2017-Sep-14 05:00N 29°37' W 090°42'0 0.0
2017-Sep-14 04:30N 29°37' W 090°42'0 0.0
2017-Sep-14 04:00N 29°37' W 090°42'0 0.0
2017-Sep-14 03:24N 29°37' W 090°42'0 0.0
2017-Sep-14 03:00N 29°37' W 090°42'0 0.0
2017-Sep-14 02:30N 29°37' W 090°42'0 0.0
2017-Sep-14 02:00N 29°37' W 090°42'0 0.0
2017-Sep-14 01:30N 29°37' W 090°42'0 0.0
2017-Sep-14 01:00N 29°37' W 090°42'0 0.3
2017-Sep-14 00:29N 29°37' W 090°42'0 0.3
2017-Sep-14 00:00N 29°37' W 090°42'0 0.0
2017-Sep-13 23:30N 29°37' W 090°42'0 0.3
2017-Sep-13 23:00N 29°37' W 090°42'0 0.0
2017-Sep-13 22:30N 29°37' W 090°42'0 0.0
2017-Sep-13 22:00N 29°37' W 090°42'0 0.0
2017-Sep-13 21:30N 29°37' W 090°42'0 0.0
2017-Sep-13 21:00N 29°37' W 090°42'0 0.0
2017-Sep-13 20:30N 29°37' W 090°42'0 0.0
2017-Sep-13 20:00N 29°37' W 090°42'0 0.0
2017-Sep-13 19:30N 29°37' W 090°42'0 0.0
2017-Sep-13 18:54N 29°37' W 090°42'0 0.0
2017-Sep-13 18:30N 29°37' W 090°42'0 0.0
2017-Sep-13 16:33N 29°37' W 090°42'0 0.0
2017-Sep-13 16:30N 29°37' W 090°42'0 0.0
2017-Sep-13 15:57N 29°37' W 090°42'0 0.0
2017-Sep-13 15:30N 29°37' W 090°42'0 0.0
2017-Sep-13 15:00N 29°37' W 090°42'0 0.0
2017-Sep-13 14:30N 29°37' W 090°42'0 0.0
2017-Sep-13 14:00N 29°37' W 090°42'0 0.0
2017-Sep-13 13:30N 29°37' W 090°42'0 0.0
2017-Sep-13 13:00N 29°37' W 090°42'0 0.0
2017-Sep-13 12:30N 29°37' W 090°42'0 0.0
2017-Sep-13 12:00N 29°37' W 090°42'0 0.0
2017-Sep-13 11:30N 29°37' W 090°42'0 0.0
2017-Sep-13 11:00N 29°37' W 090°42'0 0.0
2017-Sep-13 10:30N 29°37' W 090°42'0 0.0
2017-Sep-13 10:00N 29°37' W 090°42'0 0.0
2017-Sep-13 09:30N 29°37' W 090°42'0 0.0
2017-Sep-13 09:00N 29°37' W 090°42'0 0.0
2017-Sep-13 08:30N 29°37' W 090°42'0 0.0
2017-Sep-13 08:00N 29°37' W 090°42'0 0.0
2017-Sep-13 07:30N 29°37' W 090°42'0 0.0
2017-Sep-13 07:00N 29°37' W 090°42'0 0.0
2017-Sep-13 06:30N 29°37' W 090°42'0 0.0
2017-Sep-13 06:00N 29°37' W 090°42'0 0.0
2017-Sep-13 05:30N 29°37' W 090°42'0 0.0
2017-Sep-13 05:00N 29°37' W 090°42'0 0.0
2017-Sep-13 04:30N 29°37' W 090°42'0 0.0
2017-Sep-13 04:00N 29°37' W 090°42'0 0.0
2017-Sep-13 03:30N 29°37' W 090°42'0 0.0
2017-Sep-13 03:00N 29°37' W 090°42'0 0.0
2017-Sep-13 02:30N 29°37' W 090°42'0 0.0
2017-Sep-13 02:00N 29°37' W 090°42'0 0.0
2017-Sep-13 01:30N 29°37' W 090°42'0 0.0
2017-Sep-13 01:00N 29°37' W 090°42'0 0.0
2017-Sep-13 00:30N 29°37' W 090°42'0 0.0
2017-Sep-13 00:00N 29°37' W 090°42'0 0.0
2017-Sep-12 23:30N 29°37' W 090°42'0 0.0
2017-Sep-12 23:00N 29°37' W 090°42'0 0.0
2017-Sep-12 22:30N 29°37' W 090°42'0 0.0
2017-Sep-12 22:00N 29°37' W 090°42'0 0.0
2017-Sep-12 21:30N 29°37' W 090°42'0 0.0
2017-Sep-12 21:00N 29°37' W 090°42'0 0.0
2017-Sep-12 20:03N 29°37' W 090°42'0 0.0
2017-Sep-12 20:00N 29°37' W 090°42'0 0.0
2017-Sep-12 19:30N 29°37' W 090°42'0 0.0
2017-Sep-12 19:00N 29°37' W 090°42'0 0.0
2017-Sep-12 18:30N 29°37' W 090°42'0 0.0
2017-Sep-12 18:00N 29°37' W 090°42'0 0.0
2017-Sep-12 17:30N 29°37' W 090°42'0 0.0
2017-Sep-12 17:00N 29°37' W 090°42'0 0.0
2017-Sep-12 16:30N 29°37' W 090°42'0 0.0
2017-Sep-12 16:00N 29°37' W 090°42'0 0.0
2017-Sep-12 15:30N 29°37' W 090°42'0 0.0
2017-Sep-12 15:00N 29°37' W 090°42'0 0.0
2017-Sep-12 14:30N 29°37' W 090°42'0 0.0
2017-Sep-12 14:00N 29°37' W 090°42'0 0.0
2017-Sep-12 13:30N 29°37' W 090°42'0 0.0
2017-Sep-12 13:00N 29°37' W 090°42'0 0.1
2017-Sep-12 09:14N 29°37' W 090°42'0 0.0
2017-Sep-12 08:59N 29°37' W 090°42'0 0.0
2017-Sep-12 08:29N 29°37' W 090°42'0 0.0
2017-Sep-12 07:59N 29°37' W 090°42'0 0.2
2017-Sep-12 07:29N 29°37' W 090°42'1 2.2
2017-Sep-12 07:00N 29°36' W 090°43'2 4.6
2017-Sep-12 06:30N 29°34' W 090°44'3 5.2
2017-Sep-12 06:00N 29°32' W 090°46'4 7.6
2017-Sep-12 05:30N 29°32' W 090°50'3 6.8
2017-Sep-12 05:00N 29°33' W 090°54'4 7.3
2017-Sep-12 04:28N 29°35' W 090°58'58 5.3
2017-Sep-11 17:34N 29°49' W 092°03'0 7.1
2017-Sep-11 17:30N 29°49' W 092°03'3 7.0
2017-Sep-11 17:00N 29°47' W 092°07'3 6.9
2017-Sep-11 16:30N 29°47' W 092°11'  
Track history (hours):
 
Tides and Currents Weather Stations Pressure Air Temp Water Temp Dewpoint Dewpoint Depression Visibility Wind Speed Wind Dir Waves Ship Positions

Capt. Timmy Callais

Owner: Florida Marine, LLC, Mandeville, LA. More information available from US FCC via Universal Licensing System and Coast Guard Vessel Documentation Center.

Last reported at 2017-Sep-21 16:21 UTC. Time now 2017-Sep-24 15:39 UTC.
Position N 30°04' W 093°38'.

Length 27 m; draft 2.8 m.

Type: Towing. MMSI: 367186360.

Date/timePositionNaut miles runAvg speedWind from/ knotsBaromVisibWave heightAir tempDewpointWater temp
2017-Sep-21 16:21N 30°04' W 093°38'3 6.0
2017-Sep-21 15:54N 30°04' W 093°35'2 5.9
2017-Sep-21 15:30N 30°04' W 093°32'3 6.0
2017-Sep-21 15:00N 30°04' W 093°29'3 6.1
2017-Sep-21 14:30N 30°04' W 093°25'3 5.9
2017-Sep-21 14:00N 30°04' W 093°22'2 3.9
2017-Sep-21 13:30N 30°05' W 093°20'3 5.5
2017-Sep-21 13:00N 30°08' W 093°20'1 1.6
2017-Sep-21 12:29N 30°08' W 093°19'0 0.0
2017-Sep-21 11:59N 30°08' W 093°19'0 0.0
2017-Sep-21 11:29N 30°08' W 093°19'0 0.0
2017-Sep-21 10:59N 30°08' W 093°19'0 0.0
2017-Sep-21 10:29N 30°08' W 093°19'0 0.0
2017-Sep-21 09:59N 30°08' W 093°19'0 0.0
2017-Sep-21 09:29N 30°08' W 093°19'0 0.0
2017-Sep-21 08:59N 30°08' W 093°19'0 0.0
2017-Sep-21 08:29N 30°08' W 093°19'0 0.0
2017-Sep-21 07:59N 30°08' W 093°19'0 0.0
2017-Sep-21 07:29N 30°08' W 093°19'0 0.0
2017-Sep-21 06:59N 30°08' W 093°19'0 0.0
2017-Sep-21 06:29N 30°08' W 093°19'0 0.0
2017-Sep-21 05:59N 30°08' W 093°19'0 0.0
2017-Sep-21 05:29N 30°08' W 093°19'0 0.0
2017-Sep-21 04:59N 30°08' W 093°19'0 0.0
2017-Sep-21 04:29N 30°08' W 093°19'0 0.0
2017-Sep-21 03:59N 30°08' W 093°19'0 0.0
2017-Sep-21 03:29N 30°08' W 093°19'0 0.0
2017-Sep-21 02:56N 30°08' W 093°19'0 0.0
2017-Sep-21 02:29N 30°08' W 093°19'0 0.0
2017-Sep-21 01:59N 30°08' W 093°19'0 0.0
2017-Sep-21 01:29N 30°08' W 093°19'0 0.0
2017-Sep-21 00:59N 30°08' W 093°19'0 0.0
2017-Sep-21 00:29N 30°08' W 093°19'0 0.0
2017-Sep-20 23:59N 30°08' W 093°19'0 0.0
2017-Sep-20 23:29N 30°08' W 093°19'0 0.0
2017-Sep-20 22:59N 30°08' W 093°19'0 0.0
2017-Sep-20 22:29N 30°08' W 093°19'0 0.0
2017-Sep-20 21:56N 30°08' W 093°19'0 0.0
2017-Sep-20 21:29N 30°08' W 093°19'0 0.0
2017-Sep-20 20:59N 30°08' W 093°19'0 0.0
2017-Sep-20 20:29N 30°08' W 093°19'0 0.0
2017-Sep-20 19:59N 30°08' W 093°19'0 0.1
2017-Sep-20 19:29N 30°08' W 093°19'0 0.0
2017-Sep-20 18:59N 30°08' W 093°19'0 0.2
2017-Sep-20 18:29N 30°08' W 093°19'0 0.2
2017-Sep-20 17:59N 30°08' W 093°20'0 0.0
2017-Sep-20 17:29N 30°08' W 093°19'0 0.4
2017-Sep-20 16:59N 30°08' W 093°20'1 1.1
2017-Sep-20 16:30N 30°08' W 093°20'2 4.6
2017-Sep-20 16:00N 30°05' W 093°20'2 4.5
2017-Sep-20 15:30N 30°04' W 093°22'2 4.8
2017-Sep-20 15:00N 30°04' W 093°24'6 5.8
2017-Sep-20 14:00N 30°04' W 093°31'3 5.8
2017-Sep-20 13:30N 30°04' W 093°34'3 6.1
2017-Sep-20 12:59N 30°04' W 093°38'3 0.1
2017-Sep-19 01:13N 30°04' W 093°42'2 6.0
2017-Sep-19 00:54N 30°04' W 093°39'3 6.1
2017-Sep-19 00:26N 30°04' W 093°36'3 5.9
2017-Sep-18 23:58N 30°04' W 093°33'3 6.0
2017-Sep-18 23:30N 30°04' W 093°30'3 6.0
2017-Sep-18 23:00N 30°04' W 093°26'3 5.8
2017-Sep-18 22:30N 30°04' W 093°23'2 3.8
2017-Sep-18 21:58N 30°04' W 093°21'0 0.2
2017-Sep-18 21:30N 30°04' W 093°21'3 5.2
2017-Sep-18 21:00N 30°07' W 093°20'2 2.9
2017-Sep-18 20:29N 30°08' W 093°19'0 0.0
2017-Sep-18 19:59N 30°08' W 093°19'0 0.0
2017-Sep-18 19:29N 30°08' W 093°19'0 0.0
2017-Sep-18 18:59N 30°08' W 093°19'0 0.0
2017-Sep-18 18:29N 30°08' W 093°19'0 0.0
2017-Sep-18 17:59N 30°08' W 093°19'0 0.0
2017-Sep-18 17:29N 30°08' W 093°19'0 0.0
2017-Sep-18 16:59N 30°08' W 093°19'0 0.0
2017-Sep-18 16:29N 30°08' W 093°19'0 0.0
2017-Sep-18 15:59N 30°08' W 093°19'0 0.0
2017-Sep-18 15:29N 30°08' W 093°19'0 0.0
2017-Sep-18 14:59N 30°08' W 093°19'0 0.0
2017-Sep-18 14:29N 30°08' W 093°19'0 0.0
2017-Sep-18 13:59N 30°08' W 093°19'0 0.0
2017-Sep-18 13:29N 30°08' W 093°19'0 0.0
2017-Sep-18 12:59N 30°08' W 093°19'0 0.0
2017-Sep-18 12:29N 30°08' W 093°19'0 0.0
2017-Sep-18 11:59N 30°08' W 093°19'0 0.0
2017-Sep-18 11:29N 30°08' W 093°19'0 0.0
2017-Sep-18 10:59N 30°08' W 093°19'0 0.0
2017-Sep-18 10:29N 30°08' W 093°19'0 0.0
2017-Sep-18 09:59N 30°08' W 093°19'0 0.3
2017-Sep-18 09:29N 30°08' W 093°20'0 0.0
2017-Sep-18 08:59N 30°08' W 093°20'0 0.0
2017-Sep-18 08:29N 30°08' W 093°20'0 0.0
2017-Sep-18 07:59N 30°08' W 093°20'0 0.0
2017-Sep-18 07:29N 30°08' W 093°20'0 0.0
2017-Sep-18 06:59N 30°08' W 093°20'0 0.1
2017-Sep-18 06:29N 30°08' W 093°20'1 3.0
2017-Sep-18 06:00N 30°07' W 093°20'2 3.5
2017-Sep-18 05:28N 30°05' W 093°20'0 0.1
2017-Sep-18 04:58N 30°05' W 093°20'0 0.0
2017-Sep-18 04:28N 30°05' W 093°20'0 0.0
2017-Sep-18 03:58N 30°05' W 093°20'0 0.0
2017-Sep-18 03:28N 30°05' W 093°20'0 0.0
2017-Sep-18 02:58N 30°05' W 093°20'1 1.2
2017-Sep-18 02:30N 30°05' W 093°20'2 3.0
2017-Sep-18 01:59N 30°06' W 093°18'0 0.0
2017-Sep-18 01:29N 30°06' W 093°18'0 0.0
2017-Sep-18 00:59N 30°06' W 093°18'2 3.4
2017-Sep-18 00:31N 30°05' W 093°20'1 2.8
2017-Sep-17 23:59N 30°04' W 093°21'1 2.7
2017-Sep-17 23:30N 30°05' W 093°20'3 5.2
2017-Sep-17 23:01N 30°08' W 093°20'0 1.0
2017-Sep-17 22:30N 30°08' W 093°19'0 0.0
2017-Sep-17 22:00N 30°08' W 093°19'0 0.0
2017-Sep-17 21:30N 30°08' W 093°19'0 0.0
2017-Sep-17 21:00N 30°08' W 093°19'0 0.0
2017-Sep-17 20:30N 30°08' W 093°19'0 0.0
2017-Sep-17 20:00N 30°08' W 093°19'0 0.0
2017-Sep-17 19:30N 30°08' W 093°19'0 0.0
2017-Sep-17 19:00N 30°08' W 093°19'0 0.0
2017-Sep-17 18:30N 30°08' W 093°19'0 0.0
2017-Sep-17 18:00N 30°08' W 093°19'0 0.0
2017-Sep-17 17:30N 30°08' W 093°19'0 0.0
2017-Sep-17 17:00N 30°08' W 093°19'0 0.0
2017-Sep-17 16:30N 30°08' W 093°19'0 0.0
2017-Sep-17 16:00N 30°08' W 093°19'0 0.0
2017-Sep-17 15:30N 30°08' W 093°19'0 0.0
2017-Sep-17 15:00N 30°08' W 093°19'0 0.0
2017-Sep-17 14:30N 30°08' W 093°19'0 0.0
2017-Sep-17 14:00N 30°08' W 093°19'0 0.0
2017-Sep-17 13:30N 30°08' W 093°19'0 0.0
2017-Sep-17 13:00N 30°08' W 093°19'0 0.0
2017-Sep-17 12:30N 30°08' W 093°19'0 0.0
2017-Sep-17 12:00N 30°08' W 093°19'0 0.3
2017-Sep-17 11:30N 30°08' W 093°20'0 0.0
2017-Sep-17 11:00N 30°08' W 093°20'0 0.0
2017-Sep-17 10:30N 30°08' W 093°20'0 0.0
2017-Sep-17 10:00N 30°08' W 093°20'0 0.0
2017-Sep-17 09:30N 30°08' W 093°20'0 0.0
2017-Sep-17 09:00N 30°08' W 093°20'0 0.0
2017-Sep-17 08:30N 30°08' W 093°20'0 0.0
2017-Sep-17 07:59N 30°08' W 093°20'0 0.1
2017-Sep-17 07:30N 30°08' W 093°20'0 0.0
2017-Sep-17 07:00N 30°08' W 093°20'0 0.0
2017-Sep-17 06:30N 30°08' W 093°20'0 0.0
2017-Sep-17 06:00N 30°08' W 093°20'1 1.7
2017-Sep-17 05:30N 30°07' W 093°20'2 2.8
2017-Sep-17 04:56N 30°06' W 093°19'0 0.8
2017-Sep-17 04:30N 30°06' W 093°18'0 0.0
2017-Sep-17 04:00N 30°06' W 093°18'0 0.1
2017-Sep-17 03:30N 30°06' W 093°18'0 1.0
2017-Sep-17 03:00N 30°06' W 093°18'2 3.4
2017-Sep-17 02:30N 30°05' W 093°16'1 1.4
2017-Sep-17 02:00N 30°04' W 093°16'3 5.2
2017-Sep-17 01:30N 30°02' W 093°15'3 5.4
2017-Sep-17 01:00N 29°59' W 093°13'3 5.9
2017-Sep-17 00:30N 29°57' W 093°11'3 5.2
2017-Sep-17 00:00N 29°56' W 093°08'3 5.5
2017-Sep-16 23:30N 29°56' W 093°05'40 4.9
2017-Sep-16 15:23N 29°50' W 092°19'2 4.0
2017-Sep-16 15:00N 29°49' W 092°18'2 4.4
2017-Sep-16 14:30N 29°48' W 092°15'2 4.9
2017-Sep-16 14:00N 29°47' W 092°13'2 3.4
2017-Sep-16 13:28N 29°47' W 092°11'0 0.0
2017-Sep-16 12:58N 29°47' W 092°11'0 0.0
2017-Sep-16 12:28N 29°47' W 092°11'0 0.0
2017-Sep-16 11:58N 29°47' W 092°11'0 0.0
2017-Sep-16 11:28N 29°47' W 092°11'0 0.0
2017-Sep-16 10:58N 29°47' W 092°11'0 0.0
2017-Sep-16 10:28N 29°47' W 092°11'0 0.0
2017-Sep-16 09:58N 29°47' W 092°11'0 0.0
2017-Sep-16 09:28N 29°47' W 092°11'0 0.1
2017-Sep-16 08:58N 29°47' W 092°11'0 0.7
2017-Sep-16 08:30N 29°47' W 092°10'2 4.3
2017-Sep-16 08:00N 29°47' W 092°08'2 4.2
2017-Sep-16 07:28N 29°48' W 092°06'1 2.2
2017-Sep-16 07:00N 29°48' W 092°05'61 4.7
2017-Sep-15 18:03N 29°34' W 090°56'1 6.0
2017-Sep-15 17:51N 29°33' W 090°55'2 5.8
2017-Sep-15 17:30N 29°32' W 090°53'3 5.8
2017-Sep-15 17:00N 29°32' W 090°49'3 5.9
2017-Sep-15 16:30N 29°32' W 090°46'3 5.2
2017-Sep-15 16:00N 29°34' W 090°44'1 2.1
2017-Sep-15 15:31N 29°35' W 090°43'2 4.0
2017-Sep-15 15:01N 29°37' W 090°42'1 1.5
2017-Sep-15 14:30N 29°37' W 090°42'0 0.0
2017-Sep-15 14:00N 29°37' W 090°42'0 0.0
2017-Sep-15 13:30N 29°37' W 090°42'0 0.0
2017-Sep-15 13:00N 29°37' W 090°42'0 0.0
2017-Sep-15 12:30N 29°37' W 090°42'0 0.0
2017-Sep-15 12:00N 29°37' W 090°42'0 0.0
2017-Sep-15 11:30N 29°37' W 090°42'0 0.0
2017-Sep-15 11:00N 29°37' W 090°42'0 0.1
2017-Sep-15 10:30N 29°37' W 090°42'0 0.2
2017-Sep-15 09:59N 29°37' W 090°42'0 0.0
2017-Sep-15 09:29N 29°37' W 090°42'0 0.0
2017-Sep-15 08:59N 29°37' W 090°42'0 0.0
2017-Sep-15 08:29N 29°37' W 090°42'0 0.0
2017-Sep-15 07:59N 29°37' W 090°42'0 0.0
2017-Sep-15 07:29N 29°37' W 090°42'0 0.0
2017-Sep-15 06:59N 29°37' W 090°42'0 0.0
2017-Sep-15 06:29N 29°37' W 090°42'0 0.0
2017-Sep-15 05:59N 29°37' W 090°42'0 0.0
2017-Sep-15 05:29N 29°37' W 090°42'0 0.0
2017-Sep-15 04:59N 29°37' W 090°42'0 0.0
2017-Sep-15 04:29N 29°37' W 090°42'0 0.0
2017-Sep-15 03:59N 29°37' W 090°42'0 0.0
2017-Sep-15 03:29N 29°37' W 090°42'0 0.0
2017-Sep-15 02:59N 29°37' W 090°42'0 0.0
2017-Sep-15 02:29N 29°37' W 090°42'0 0.0
2017-Sep-15 01:59N 29°37' W 090°42'0 0.0
2017-Sep-15 01:29N 29°37' W 090°42'0 0.0
2017-Sep-15 00:59N 29°37' W 090°42'0 0.0
2017-Sep-15 00:29N 29°37' W 090°42'0 0.0
2017-Sep-14 23:59N 29°37' W 090°42'0 0.0
2017-Sep-14 23:29N 29°37' W 090°42'0 0.2
2017-Sep-14 23:00N 29°37' W 090°42'0 0.1
2017-Sep-14 22:30N 29°37' W 090°42'0 0.0
2017-Sep-14 22:00N 29°37' W 090°42'0 0.0
2017-Sep-14 21:30N 29°37' W 090°42'0 0.0
2017-Sep-14 21:00N 29°37' W 090°42'0 0.0
2017-Sep-14 20:30N 29°37' W 090°42'0 0.0
2017-Sep-14 20:00N 29°37' W 090°42'0 0.0
2017-Sep-14 19:30N 29°37' W 090°42'0 0.0
2017-Sep-14 19:00N 29°37' W 090°42'0 0.0
2017-Sep-14 18:30N 29°37' W 090°42'0 0.0
2017-Sep-14 18:00N 29°37' W 090°42'0 0.0
2017-Sep-14 17:24N 29°37' W 090°42'0 0.0
2017-Sep-14 17:00N 29°37' W 090°42'0 0.0
2017-Sep-14 16:30N 29°37' W 090°42'0 0.0
2017-Sep-14 16:00N 29°37' W 090°42'0 0.0
2017-Sep-14 15:30N 29°37' W 090°42'0 0.0
2017-Sep-14 15:00N 29°37' W 090°42'0 0.0
2017-Sep-14 14:30N 29°37' W 090°42'0 0.0
2017-Sep-14 14:00N 29°37' W 090°42'0 0.0
2017-Sep-14 13:30N 29°37' W 090°42'0 0.0
2017-Sep-14 13:00N 29°37' W 090°42'0 0.0
2017-Sep-14 12:30N 29°37' W 090°42'0 0.0
2017-Sep-14 12:00N 29°37' W 090°42'0 0.0
2017-Sep-14 11:30N 29°37' W 090°42'0 0.0
2017-Sep-14 11:00N 29°37' W 090°42'0 0.0
2017-Sep-14 10:30N 29°37' W 090°42'0 0.4
2017-Sep-14 10:00N 29°37' W 090°42'0 0.1
2017-Sep-14 09:28N 29°37' W 090°42'0 0.3
2017-Sep-14 09:00N 29°37' W 090°42'0 0.2
2017-Sep-14 08:30N 29°37' W 090°42'0 0.0
2017-Sep-14 08:00N 29°37' W 090°42'0 0.0
2017-Sep-14 07:30N 29°37' W 090°42'0 0.0
2017-Sep-14 07:00N 29°37' W 090°42'0 0.0
2017-Sep-14 06:30N 29°37' W 090°42'0 0.0
2017-Sep-14 06:00N 29°37' W 090°42'0 0.0
2017-Sep-14 05:30N 29°37' W 090°42'0 0.0
2017-Sep-14 05:00N 29°37' W 090°42'0 0.0
2017-Sep-14 04:30N 29°37' W 090°42'0 0.0
2017-Sep-14 04:00N 29°37' W 090°42'0 0.0
2017-Sep-14 03:24N 29°37' W 090°42'0 0.0
2017-Sep-14 03:00N 29°37' W 090°42'0 0.0
2017-Sep-14 02:30N 29°37' W 090°42'0 0.0
2017-Sep-14 02:00N 29°37' W 090°42'0 0.0
2017-Sep-14 01:30N 29°37' W 090°42'0 0.0
2017-Sep-14 01:00N 29°37' W 090°42'0 0.3
2017-Sep-14 00:29N 29°37' W 090°42'0 0.3
2017-Sep-14 00:00N 29°37' W 090°42'0 0.0
2017-Sep-13 23:30N 29°37' W 090°42'0 0.3
2017-Sep-13 23:00N 29°37' W 090°42'0 0.0
2017-Sep-13 22:30N 29°37' W 090°42'0 0.0
2017-Sep-13 22:00N 29°37' W 090°42'0 0.0
2017-Sep-13 21:30N 29°37' W 090°42'0 0.0
2017-Sep-13 21:00N 29°37' W 090°42'0 0.0
2017-Sep-13 20:30N 29°37' W 090°42'0 0.0
2017-Sep-13 20:00N 29°37' W 090°42'0 0.0
2017-Sep-13 19:30N 29°37' W 090°42'0 0.0
2017-Sep-13 18:54N 29°37' W 090°42'0 0.0
2017-Sep-13 18:30N 29°37' W 090°42'0 0.0
2017-Sep-13 16:33N 29°37' W 090°42'0 0.0
2017-Sep-13 16:30N 29°37' W 090°42'0 0.0
2017-Sep-13 15:57N 29°37' W 090°42'0 0.0
2017-Sep-13 15:30N 29°37' W 090°42'0 0.0
2017-Sep-13 15:00N 29°37' W 090°42'0 0.0
2017-Sep-13 14:30N 29°37' W 090°42'0 0.0
2017-Sep-13 14:00N 29°37' W 090°42'0 0.0
2017-Sep-13 13:30N 29°37' W 090°42'0 0.0
2017-Sep-13 13:00N 29°37' W 090°42'0 0.0
2017-Sep-13 12:30N 29°37' W 090°42'0 0.0
2017-Sep-13 12:00N 29°37' W 090°42'0 0.0
2017-Sep-13 11:30N 29°37' W 090°42'0 0.0
2017-Sep-13 11:00N 29°37' W 090°42'0 0.0
2017-Sep-13 10:30N 29°37' W 090°42'0 0.0
2017-Sep-13 10:00N 29°37' W 090°42'0 0.0
2017-Sep-13 09:30N 29°37' W 090°42'0 0.0
2017-Sep-13 09:00N 29°37' W 090°42'0 0.0
2017-Sep-13 08:30N 29°37' W 090°42'0 0.0
2017-Sep-13 08:00N 29°37' W 090°42'0 0.0
2017-Sep-13 07:30N 29°37' W 090°42'0 0.0
2017-Sep-13 07:00N 29°37' W 090°42'0 0.0
2017-Sep-13 06:30N 29°37' W 090°42'0 0.0
2017-Sep-13 06:00N 29°37' W 090°42'0 0.0
2017-Sep-13 05:30N 29°37' W 090°42'0 0.0
2017-Sep-13 05:00N 29°37' W 090°42'0 0.0
2017-Sep-13 04:30N 29°37' W 090°42'0 0.0
2017-Sep-13 04:00N 29°37' W 090°42'0 0.0
2017-Sep-13 03:30N 29°37' W 090°42'0 0.0
2017-Sep-13 03:00N 29°37' W 090°42'0 0.0
2017-Sep-13 02:30N 29°37' W 090°42'0 0.0
2017-Sep-13 02:00N 29°37' W 090°42'0 0.0
2017-Sep-13 01:30N 29°37' W 090°42'0 0.0
2017-Sep-13 01:00N 29°37' W 090°42'0 0.0
2017-Sep-13 00:30N 29°37' W 090°42'0 0.0
2017-Sep-13 00:00N 29°37' W 090°42'0 0.0
2017-Sep-12 23:30N 29°37' W 090°42'0 0.0
2017-Sep-12 23:00N 29°37' W 090°42'0 0.0
2017-Sep-12 22:30N 29°37' W 090°42'0 0.0
2017-Sep-12 22:00N 29°37' W 090°42'0 0.0
2017-Sep-12 21:30N 29°37' W 090°42'0 0.0
2017-Sep-12 21:00N 29°37' W 090°42'0 0.0
2017-Sep-12 20:03N 29°37' W 090°42'0 0.0
2017-Sep-12 20:00N 29°37' W 090°42'0 0.0
2017-Sep-12 19:30N 29°37' W 090°42'0 0.0
2017-Sep-12 19:00N 29°37' W 090°42'0 0.0
2017-Sep-12 18:30N 29°37' W 090°42'0 0.0
2017-Sep-12 18:00N 29°37' W 090°42'0 0.0
2017-Sep-12 17:30N 29°37' W 090°42'0 0.0
2017-Sep-12 17:00N 29°37' W 090°42'0 0.0
2017-Sep-12 16:30N 29°37' W 090°42'0 0.0
2017-Sep-12 16:00N 29°37' W 090°42'0 0.0
2017-Sep-12 15:30N 29°37' W 090°42'0 0.0
2017-Sep-12 15:00N 29°37' W 090°42'0 0.0
2017-Sep-12 14:30N 29°37' W 090°42'0 0.0
2017-Sep-12 14:00N 29°37' W 090°42'0 0.0
2017-Sep-12 13:30N 29°37' W 090°42'0 0.0
2017-Sep-12 13:00N 29°37' W 090°42'0 0.1
2017-Sep-12 09:14N 29°37' W 090°42'0 0.0
2017-Sep-12 08:59N 29°37' W 090°42'0 0.0
2017-Sep-12 08:29N 29°37' W 090°42'0 0.0
2017-Sep-12 07:59N 29°37' W 090°42'0 0.2
2017-Sep-12 07:29N 29°37' W 090°42'1 2.2
2017-Sep-12 07:00N 29°36' W 090°43'2 4.6
2017-Sep-12 06:30N 29°34' W 090°44'3 5.2
2017-Sep-12 06:00N 29°32' W 090°46'4 7.6
2017-Sep-12 05:30N 29°32' W 090°50'3 6.8
2017-Sep-12 05:00N 29°33' W 090°54'4 7.3
2017-Sep-12 04:28N 29°35' W 090°58'58 5.3
2017-Sep-11 17:34N 29°49' W 092°03'0 7.1
2017-Sep-11 17:30N 29°49' W 092°03'3 7.0
2017-Sep-11 17:00N 29°47' W 092°07'3 6.9
2017-Sep-11 16:30N 29°47' W 092°11'  

Dump ship's entire track history